Amity, Oregon
Current Conditions -  °F | °C
As of 8:53 AM on Thursday 30 Oct 2014 (Local Time) from KMMV Reporting Station
Broken Clouds Broken Clouds  
Wind Chill: 13°   Ceiling: 4900
Heat Index: 13°   Visibility: 7mi
Dew Point: 12°   Wind: 0mph
Humidity: 93%   Direction: NA
Pressure: 29.88"   Gusts: NA
Location:  45.12°N, 123.21°W
Report Text: KMMV 301553Z AUTO 00000KT 7SM SCT005 BKN049 13/12 A2988 RMK AO2 RAB1457E35 SLP119 P0001 T01330122
Loading
Personal Weather Stations






























Interactive Weather Map
Tropical Storm Tracking
New forecast layout! Learn more

10-Day Weather Forecast

Advertisements
Track Severe Weather on mobile